LGIR/HER METAR and TAF weather

Enter ICAO airport designator
Station Type Date Time Source
LGIR METAR 2020/01/29 12:50 UTC NOAA

LGIR 291250Z 31005KT 9999 FEW025 SCT050 18/11 Q1017 NOSIG


Station Type Date Time Source
LGIR Decoded METAR 2020/01/29 12:50 UTC NOAA

Heraklion Airport , Greece (LGIR) 35-20N 025-11E 39M
Jan 29, 2020 - 07:50 AM EST / 2020.01.29 1250 UTC
Wind: from the NW (310 degrees) at 6 MPH (5 KT):0
Visibility: greater than 7 mile(s):0
Sky conditions: partly cloudy
Temperature: 64 F (18 C)
Dew Point: 51 F (11 C)
Relative Humidity: 63%
Pressure (altimeter): 30.03 in. Hg (1017 hPa)
ob: LGIR 291250Z 31005KT 9999 FEW025 SCT050 18/11 Q1017 NOSIG
cycle: 13

Station Type Date Time Source
LGIR TAF 2020/01/29 12:15 UTC NOAA

TAF LGIR 291100Z 2912/3012 20014KT 9999 FEW025 SCT080
TEMPO 2912/2918 30015G25KT

Example: see airport list